TimePDT,TemperatureF,Dew PointF,Humidity,Sea Level PressureIn,VisibilityMPH,Wind Direction,Wind SpeedMPH,Gust SpeedMPH,PrecipitationIn,Events,Conditions,WindDirDegrees,DateUTC
12:51 AM,57.9,37.9,47,30.01,10.0,Calm,Calm,-,N/A,,Clear,0,2012-10-29 07:51:00
1:51 AM,57.0,48.0,72,30.02,10.0,Calm,Calm,-,N/A,,Clear,0,2012-10-29 08:51:00
2:51 AM,55.0,48.0,77,30.02,10.0,East,3.5,-,N/A,,Clear,90,2012-10-29 09:51:00
3:51 AM,55.0,37.0,51,30.01,10.0,Calm,Calm,-,N/A,,Clear,0,2012-10-29 10:51:00
4:51 AM,54.0,36.0,51,30.02,10.0,Calm,Calm,-,N/A,,Clear,0,2012-10-29 11:51:00
5:51 AM,51.1,37.0,59,30.03,10.0,Calm,Calm,-,N/A,,Clear,0,2012-10-29 12:51:00
6:51 AM,52.0,36.0,54,30.04,10.0,Calm,Calm,-,N/A,,Clear,0,2012-10-29 13:51:00
7:51 AM,51.1,37.9,61,30.06,9.0,North,3.5,-,N/A,,Clear,360,2012-10-29 14:51:00
8:51 AM,60.1,35.1,39,30.08,10.0,NNE,3.5,-,N/A,,Clear,30,2012-10-29 15:51:00
9:51 AM,64.9,37.0,36,30.09,10.0,Calm,Calm,-,N/A,,Clear,0,2012-10-29 16:51:00
10:51 AM,70.0,37.0,30,30.09,10.0,Calm,Calm,-,N/A,,Clear,0,2012-10-29 17:51:00
11:51 AM,69.1,55.0,61,30.08,10.0,West,5.8,-,N/A,,Clear,280,2012-10-29 18:51:00
12:51 PM,68.0,54.0,61,30.05,10.0,West,8.1,-,N/A,,Clear,280,2012-10-29 19:51:00
2:51 PM,69.1,57.9,68,30.02,10.0,West,9.2,-,N/A,,Clear,280,2012-10-29 21:51:00
3:51 PM,64.9,59.0,81,30.02,9.0,West,6.9,-,N/A,,Clear,280,2012-10-29 22:51:00
4:51 PM,64.0,59.0,84,30.02,10.0,West,5.8,-,N/A,,Clear,270,2012-10-29 23:51:00
5:15 PM,60.8,57.2,88,30.03,4.0,West,6.9,-,N/A,,Partly Cloudy,270,2012-10-30 00:15:00
5:21 PM,60.8,59.0,94,30.02,2.5,WNW,8.1,-,N/A,,Mostly Cloudy,290,2012-10-30 00:21:00
5:31 PM,60.8,59.0,94,30.02,5.0,WNW,5.8,-,N/A,,Mostly Cloudy,300,2012-10-30 00:31:00
5:39 PM,60.8,57.2,88,30.02,8.0,WNW,4.6,-,N/A,,Partly Cloudy,290,2012-10-30 00:39:00
5:51 PM,61.0,57.9,90,30.03,6.0,West,5.8,-,N/A,,Partly Cloudy,270,2012-10-30 00:51:00
5:56 PM,60.8,57.2,88,30.02,1.2,West,5.8,-,N/A,,Scattered Clouds,270,2012-10-30 00:56:00
5:58 PM,60.8,57.2,88,30.02,0.8,West,5.8,-,N/A,,Mist,280,2012-10-30 00:58:00
6:22 PM,60.8,59.0,94,30.03,2.5,Calm,Calm,-,N/A,,Mostly Cloudy,0,2012-10-30 01:22:00
6:25 PM,60.8,59.0,94,30.03,4.0,WNW,3.5,-,N/A,,Scattered Clouds,290,2012-10-30 01:25:00
6:51 PM,60.1,59.0,96,30.03,6.0,Calm,Calm,-,N/A,,Clear,0,2012-10-30 01:51:00
7:43 PM,60.8,57.2,88,30.03,5.0,Calm,Calm,-,N/A,,Scattered Clouds,0,2012-10-30 02:43:00
7:51 PM,59.0,57.9,96,30.03,5.0,Calm,Calm,-,N/A,,Mostly Cloudy,0,2012-10-30 02:51:00
8:38 PM,60.8,57.2,88,30.04,6.0,West,4.6,-,N/A,,Scattered Clouds,280,2012-10-30 03:38:00
8:51 PM,59.0,57.0,93,30.04,5.0,WNW,4.6,-,N/A,,Clear,300,2012-10-30 03:51:00
9:47 PM,57.2,55.4,94,30.05,3.0,NW,3.5,-,N/A,,Partly Cloudy,310,2012-10-30 04:47:00
9:51 PM,57.9,55.9,93,30.05,3.0,Calm,Calm,-,N/A,,Partly Cloudy,0,2012-10-30 04:51:00
10:18 PM,57.2,55.4,94,30.06,2.5,NW,3.5,-,N/A,,Clear,310,2012-10-30 05:18:00
10:27 PM,57.2,55.4,94,30.06,4.0,NW,3.5,-,N/A,,Clear,320,2012-10-30 05:27:00
10:51 PM,55.9,54.0,93,30.06,4.0,Calm,Calm,-,N/A,,Clear,0,2012-10-30 05:51:00